Time;durP1;ratioP1;P1;durP2;ratioP2;P2;SDS_P1;SDS_P2;PMS_P1;PMS_P2;Temp;Humidity;BMP_temperature;BMP_pressure;BME280_temperature;BME280_humidity;BME280_pressure;Samples;Min_cycle;Max_cycle;Signal;HPM_P1;HPM_P2
2021/12/21 00:00:18;;;;;;;8.83;3.90;;;;;;;-5.38;100.00;98686.67;1844126;77;21502;-65
2021/12/21 00:02:48;;;;;;;8.40;2.85;;;;;;;-5.39;100.00;98694.42;1843993;77;20927;-66
2021/12/21 00:05:19;;;;;;;8.95;3.77;;;;;;;-5.39;100.00;98695.77;1844185;77;21455;-65
2021/12/21 00:07:47;;;;;;;11.40;4.35;;;;;;;-5.39;100.00;98705.17;1818455;77;20947;-68
2021/12/21 00:10:17;;;;;;;9.08;5.10;;;;;;;-5.40;100.00;98703.55;1819022;77;21007;-67
2021/12/21 00:13:46;;;;;;;6.85;3.27;;;;;;;-5.40;100.00;98704.88;1844263;77;20892;-67
2021/12/21 00:15:50;;;;;;;10.70;5.08;;;;;;;-5.39;100.00;98712.42;1835039;77;20864;-66
2021/12/21 00:23:45;;;;;;;5.75;3.02;;;;;;;-5.38;100.00;98722.11;1838659;78;20977;-65
2021/12/21 00:26:15;;;;;;;3.00;1.35;;;;;;;-5.37;100.00;98727.76;1817125;78;22091;-66
2021/12/21 00:31:12;;;;;;;4.30;1.98;;;;;;;-5.47;100.00;98734.23;1838661;78;21441;-66
2021/12/21 00:33:40;;;;;;;8.65;3.50;;;;;;;-5.50;100.00;98745.77;1838940;78;21469;-67
2021/12/21 00:36:09;;;;;;;8.60;2.92;;;;;;;-5.53;100.00;98750.27;1838706;78;20893;-67
2021/12/21 00:38:36;;;;;;;10.40;3.77;;;;;;;-5.56;100.00;98743.98;1838602;78;21134;-65
2021/12/21 00:41:04;;;;;;;8.30;2.45;;;;;;;-5.63;100.00;98761.55;1812983;78;20908;-66
2021/12/21 00:43:34;;;;;;;12.68;5.00;;;;;;;-5.66;100.00;98762.02;1838559;78;20825;-66
2021/12/21 00:46:03;;;;;;;4.95;2.60;;;;;;;-5.74;100.00;98758.34;1838748;78;20911;-68
2021/12/21 00:48:33;;;;;;;6.10;2.83;;;;;;;-5.76;100.00;98751.86;1838980;78;20852;-66
2021/12/21 00:51:01;;;;;;;8.98;4.58;;;;;;;-5.78;100.00;98759.31;1838564;78;21016;-67
2021/12/21 00:53:35;;;;;;;19.45;7.95;;;;;;;-5.86;100.00;98755.11;1838746;78;20916;-67
2021/12/21 00:56:00;;;;;;;22.02;10.48;;;;;;;-5.91;100.00;98760.35;1838843;78;21496;-67
2021/12/21 00:58:27;;;;;;;21.12;8.93;;;;;;;-5.90;100.00;98766.00;1838905;78;20959;-67
2021/12/21 01:00:57;;;;;;;26.15;9.75;;;;;;;-5.93;100.00;98775.86;1838689;78;20996;-66
2021/12/21 01:03:28;;;;;;;13.70;6.45;;;;;;;-6.01;100.00;98775.67;1838591;78;21119;-64
2021/12/21 01:06:04;;;;;;;7.28;3.40;;;;;;;-6.11;100.00;98780.80;1812891;78;20912;-66
2021/12/21 01:08:43;;;;;;;18.50;8.08;;;;;;;-6.25;100.00;98790.89;1838784;78;21508;-66
2021/12/21 01:11:16;;;;;;;12.33;5.80;;;;;;;-6.31;100.00;98790.47;1836844;78;20873;-65
2021/12/21 01:13:51;;;;;;;6.78;3.50;;;;;;;-6.38;100.00;98795.38;1838131;78;20947;-65
2021/12/21 01:16:22;;;;;;;19.45;6.97;;;;;;;-6.47;100.00;98796.75;1836603;77;21138;-64
2021/12/21 01:21:29;;;;;;;7.35;2.98;;;;;;;-6.54;100.00;98802.19;1837919;77;20809;-70
2021/12/21 01:29:17;;;;;;;5.20;2.67;;;;;;;-6.55;100.00;98802.42;1768784;78;21553;-65
2021/12/21 01:31:56;;;;;;;4.97;2.45;;;;;;;-6.55;100.00;98805.09;1835869;78;21089;-67
2021/12/21 01:34:45;;;;;;;5.30;1.80;;;;;;;-6.58;100.00;98812.25;1835957;78;20960;-66
2021/12/21 01:37:31;;;;;;;14.35;5.25;;;;;;;-6.63;100.00;98816.92;1784428;78;21519;-69
2021/12/21 01:39:59;;;;;;;9.75;2.47;;;;;;;-6.64;100.00;98807.26;1836552;78;20956;-66
2021/12/21 01:42:51;;;;;;;16.82;6.35;;;;;;;-6.70;100.00;98808.96;1836502;78;21188;-66
2021/12/21 01:50:38;;;;;;;19.30;7.65;;;;;;;-6.72;100.00;98822.59;1786281;80;20979;-66
2021/12/21 01:53:04;;;;;;;14.85;6.62;;;;;;;-6.72;100.00;98826.61;1786250;80;21027;-66
2021/12/21 01:55:31;;;;;;;11.55;4.72;;;;;;;-6.72;100.00;98823.93;1786038;80;21062;-66
2021/12/21 01:58:02;;;;;;;14.33;6.22;;;;;;;-6.72;100.00;98828.49;1786016;80;21519;-64
2021/12/21 02:00:29;;;;;;;9.25;4.45;;;;;;;-6.73;100.00;98831.69;1813173;79;20943;-67
2021/12/21 02:02:57;;;;;;;4.72;2.62;;;;;;;-6.73;100.00;98838.89;1831363;78;21049;-66
2021/12/21 02:05:24;;;;;;;5.75;3.05;;;;;;;-6.80;100.00;98838.97;1838242;78;21217;-68
2021/12/21 02:07:54;;;;;;;7.72;4.12;;;;;;;-6.84;100.00;98851.98;1838034;77;21535;-64
2021/12/21 02:10:24;;;;;;;5.65;3.00;;;;;;;-6.86;100.00;98845.22;1837937;78;20821;-64
2021/12/21 02:12:51;;;;;;;8.10;3.47;;;;;;;-6.86;100.00;98847.91;1808805;78;20903;-66
2021/12/21 02:15:19;;;;;;;5.45;2.77;;;;;;;-6.87;100.00;98855.63;1838014;78;20939;-65
2021/12/21 02:18:28;;;;;;;5.35;2.35;;;;;;;-6.86;100.00;98858.63;1838023;77;21003;-66
2021/12/21 02:20:54;;;;;;;;;;;;;;;;;;;;;
2021/12/21 02:25:56;;;;;;;5.17;2.83;;;;;;;-6.90;100.00;98862.27;1837850;78;20960;-66
2021/12/21 02:30:51;;;;;;;6.28;2.75;;;;;;;-6.93;100.00;98868.58;1838097;78;21437;-67
2021/12/21 02:33:18;;;;;;;5.37;2.65;;;;;;;-6.94;100.00;98878.47;1808222;78;20994;-67
2021/12/21 02:35:44;;;;;;;4.25;1.90;;;;;;;-6.95;100.00;98876.84;1837977;78;20935;-67
2021/12/21 02:38:10;;;;;;;3.42;2.15;;;;;;;-6.96;100.00;98883.25;1838478;78;21425;-65
2021/12/21 02:40:40;;;;;;;5.53;2.65;;;;;;;-6.99;100.00;98891.70;1808076;78;21023;-67
2021/12/21 02:43:08;;;;;;;5.90;2.52;;;;;;;-6.98;100.00;98894.70;1838320;78;21074;-66
2021/12/21 02:45:38;;;;;;;3.80;2.27;;;;;;;-7.00;100.00;98898.94;1807900;78;21805;-67
2021/12/21 02:48:05;;;;;;;4.30;2.50;;;;;;;-6.97;100.00;98897.16;1837876;78;20951;-67
2021/12/21 02:50:31;;;;;;;7.08;1.70;;;;;;;-7.00;100.00;98892.24;1838154;78;21429;-64
2021/12/21 02:53:02;;;;;;;8.48;2.67;;;;;;;-7.03;100.00;98893.20;1837739;78;21485;-65
2021/12/21 02:55:29;;;;;;;6.08;2.70;;;;;;;-7.04;100.00;98898.23;1808018;78;20845;-65
2021/12/21 02:57:59;;;;;;;8.38;2.60;;;;;;;-7.04;100.00;98898.23;1837956;77;21469;-65
2021/12/21 03:00:27;;;;;;;8.98;2.52;;;;;;;-7.04;100.00;98899.58;1837975;78;20943;-66
2021/12/21 03:02:54;;;;;;;6.72;2.30;;;;;;;-7.05;100.00;98904.64;1838116;78;20919;-66
2021/12/21 03:05:24;;;;;;;6.08;2.85;;;;;;;-7.04;100.00;98900.91;1808029;78;20856;-66
2021/12/21 03:08:07;;;;;;;5.78;2.80;;;;;;;-7.03;100.00;98906.08;1807979;78;20903;-66
2021/12/21 03:10:24;;;;;;;9.15;2.83;;;;;;;-7.02;100.00;98915.75;1835560;78;21057;-68
2021/12/21 03:15:23;;;;;;;5.78;2.30;;;;;;;-6.99;100.00;98917.16;1808012;78;20904;-68
2021/12/21 03:17:52;;;;;;;6.15;2.37;;;;;;;-6.98;100.00;98922.30;1837920;77;20864;-66
2021/12/21 03:20:22;;;;;;;4.90;2.37;;;;;;;-6.98;100.00;98917.47;1808006;78;21044;-66
2021/12/21 03:22:51;;;;;;;4.65;2.40;;;;;;;-6.94;100.00;98922.67;1838202;78;21180;-65
2021/12/21 03:25:19;;;;;;;4.28;1.98;;;;;;;-6.95;100.00;98925.06;1837913;78;20869;-66
2021/12/21 03:27:46;;;;;;;8.38;1.60;;;;;;;-6.90;100.00;98926.57;1837933;78;20947;-66
2021/12/21 03:30:15;;;;;;;4.45;2.33;;;;;;;-6.89;100.00;98936.23;1808287;78;20941;-64
2021/12/21 03:32:42;;;;;;;5.35;1.98;;;;;;;-6.89;100.00;98931.42;1838689;78;20864;-65
2021/12/21 03:35:11;;;;;;;4.30;2.17;;;;;;;-6.93;100.00;98927.02;1808040;78;21014;-66
2021/12/21 03:37:38;;;;;;;5.40;2.40;;;;;;;-6.94;100.00;98936.62;1837641;78;20940;-64
2021/12/21 03:40:08;;;;;;;4.90;2.42;;;;;;;-6.97;100.00;98927.14;1807923;78;20983;-67
2021/12/21 03:42:38;;;;;;;7.70;2.55;;;;;;;-6.91;100.00;98930.30;1838333;77;21004;-66
2021/12/21 03:45:09;;;;;;;6.25;2.37;;;;;;;-6.87;100.00;98932.00;1838012;78;20928;-66
2021/12/21 03:47:35;;;;;;;3.77;2.27;;;;;;;-6.83;100.00;98938.57;1808018;78;21551;-66
2021/12/21 03:50:15;;;;;;;5.55;2.62;;;;;;;-6.84;100.00;98941.77;1837977;78;20883;-66
2021/12/21 03:52:38;;;;;;;5.90;2.60;;;;;;;-6.87;100.00;98940.87;1837353;78;20900;-65
2021/12/21 03:55:08;;;;;;;2.70;1.87;;;;;;;-6.87;100.00;98937.36;1837733;78;20916;-65
2021/12/21 03:57:36;;;;;;;4.67;2.15;;;;;;;-6.90;100.00;98938.62;1808413;78;20973;-66
2021/12/21 04:00:05;;;;;;;3.67;2.10;;;;;;;-6.93;100.00;98932.88;1838091;77;21142;-67
2021/12/21 04:02:31;;;;;;;4.10;2.35;;;;;;;-6.93;100.00;98934.23;1808576;78;21257;-66
2021/12/21 04:05:00;;;;;;;5.10;2.65;;;;;;;-6.93;100.00;98935.05;1838065;78;20868;-64
2021/12/21 04:07:30;;;;;;;4.70;1.77;;;;;;;-6.95;100.00;98941.14;1808361;78;20931;-64
2021/12/21 04:09:56;;;;;;;4.80;2.50;;;;;;;-6.89;100.00;98948.84;1838205;78;21011;-65
2021/12/21 04:12:30;;;;;;;5.87;2.55;;;;;;;-6.89;100.00;98946.16;1808327;78;21108;-66
2021/12/21 04:14:58;;;;;;;5.47;2.55;;;;;;;-6.86;100.00;98941.16;1838037;78;20904;-66
2021/12/21 04:17:27;;;;;;;6.35;2.42;;;;;;;-6.84;100.00;98954.36;1808135;78;21030;-65
2021/12/21 04:19:53;;;;;;;4.20;1.95;;;;;;;-6.79;100.00;98940.30;1808352;78;20959;-66
2021/12/21 04:22:21;;;;;;;7.78;3.25;;;;;;;-6.73;100.00;98946.11;1837977;78;20864;-66
2021/12/21 04:24:48;;;;;;;4.72;2.15;;;;;;;-6.70;100.00;98952.91;1838260;78;21116;-67
2021/12/21 04:27:15;;;;;;;4.50;2.17;;;;;;;-6.71;100.00;98958.78;1838462;77;20947;-66
2021/12/21 04:29:42;;;;;;;7.70;2.37;;;;;;;-6.72;100.00;98958.48;1838145;78;20821;-66
2021/12/21 04:32:13;;;;;;;5.78;2.45;;;;;;;-6.71;100.00;98957.44;1838545;77;20852;-66
2021/12/21 04:34:40;;;;;;;5.65;2.22;;;;;;;-6.64;100.00;98958.72;1838093;78;20959;-66
2021/12/21 04:37:09;;;;;;;10.90;3.65;;;;;;;-6.67;100.00;98958.63;1838122;77;20848;-70
2021/12/21 04:42:06;;;;;;;3.83;2.08;;;;;;;-6.71;100.00;98961.45;1838314;78;21000;-69
2021/12/21 04:44:33;;;;;;;5.67;2.77;;;;;;;-6.77;100.00;98965.03;1838182;78;20988;-68
2021/12/21 04:47:00;;;;;;;4.15;2.42;;;;;;;-6.78;100.00;98962.86;1837997;78;20841;-67
2021/12/21 04:49:28;;;;;;;5.50;2.70;;;;;;;-6.80;100.00;98972.97;1837868;78;21838;-67
2021/12/21 04:51:54;;;;;;;8.65;3.30;;;;;;;-6.77;100.00;98978.42;1838004;78;20974;-65
2021/12/21 04:54:20;;;;;;;9.00;2.92;;;;;;;-6.71;100.00;98981.56;1837848;78;20968;-66
2021/12/21 04:56:47;;;;;;;7.70;3.33;;;;;;;-6.67;100.00;98981.95;1838003;78;21469;-66
2021/12/21 04:59:15;;;;;;;6.75;3.42;;;;;;;-6.67;100.00;98980.06;1838173;78;20916;-65
2021/12/21 05:01:42;;;;;;;7.37;3.90;;;;;;;-6.67;100.00;98978.72;1838029;78;21117;-69
2021/12/21 05:04:11;;;;;;;7.97;3.67;;;;;;;-6.72;100.00;98976.71;1838287;78;20951;-67
2021/12/21 05:06:39;;;;;;;7.85;3.33;;;;;;;-6.70;100.00;98981.05;1807799;78;20955;-67
2021/12/21 05:09:21;;;;;;;2.47;2.00;;;;;;;-6.73;100.00;98981.78;1838438;78;21512;-66
2021/12/21 05:11:41;;;;;;;3.80;2.17;;;;;;;-6.80;100.00;98981.01;1833607;78;20948;-69
2021/12/21 05:14:11;;;;;;;4.22;2.42;;;;;;;-6.91;100.00;98984.41;1838020;77;21969;-66
2021/12/21 05:16:38;;;;;;;5.12;2.72;;;;;;;-7.00;100.00;98994.05;1836600;78;21019;-65
2021/12/21 05:19:06;;;;;;;4.67;2.77;;;;;;;-7.12;100.00;99008.66;1837778;77;20968;-67
2021/12/21 05:21:38;;;;;;;4.78;2.42;;;;;;;-7.21;100.00;99012.62;1837890;77;20951;-66
2021/12/21 05:24:05;;;;;;;4.33;2.22;;;;;;;-7.30;100.00;99019.28;1838361;78;20924;-66
2021/12/21 05:26:36;;;;;;;6.50;1.90;;;;;;;-7.46;100.00;99023.58;1838196;78;21497;-69
2021/12/21 05:29:04;;;;;;;3.67;1.77;;;;;;;-7.53;100.00;99013.41;1838004;77;20924;-68
2021/12/21 05:31:33;;;;;;;4.20;2.42;;;;;;;-7.68;100.00;99022.23;1838122;78;20912;-66
2021/12/21 05:34:00;;;;;;;4.40;2.50;;;;;;;-7.79;100.00;99025.86;1838134;77;20912;-67
2021/12/21 05:36:35;;;;;;;8.53;1.77;;;;;;;-7.89;100.00;99033.51;1838006;78;21491;-68
2021/12/21 05:39:23;;;;;;;5.78;2.37;;;;;;;-7.97;100.00;99043.42;1837977;78;21089;-67
2021/12/21 05:41:52;;;;;;;4.00;2.17;;;;;;;-8.07;100.00;99045.71;1808123;78;21477;-67
2021/12/21 05:44:24;;;;;;;3.65;1.82;;;;;;;-8.16;100.00;99051.79;1838142;78;20845;-66
2021/12/21 05:46:54;;;;;;;3.52;2.05;;;;;;;-8.18;100.00;99055.18;1837903;78;20893;-65
2021/12/21 05:49:24;;;;;;;2.95;1.95;;;;;;;-8.14;100.00;99046.23;1838069;78;20992;-66
2021/12/21 05:51:56;;;;;;;3.33;1.40;;;;;;;-8.13;100.00;99054.05;1808178;78;21009;-65
2021/12/21 05:54:28;;;;;;;6.12;2.30;;;;;;;-8.14;100.00;99052.91;1808033;78;20921;-66
2021/12/21 05:56:55;;;;;;;9.60;3.62;;;;;;;-8.08;100.00;99050.73;1808052;78;20984;-66
2021/12/21 05:59:26;;;;;;;6.87;3.35;;;;;;;-8.10;100.00;99061.64;1838037;78;20920;-66
2021/12/21 06:01:53;;;;;;;12.33;4.78;;;;;;;-8.11;100.00;99065.86;1838172;77;21484;-66
2021/12/21 06:04:23;;;;;;;5.75;3.02;;;;;;;-8.10;100.00;99068.87;1808243;78;21002;-64
2021/12/21 06:06:49;;;;;;;11.73;2.80;;;;;;;-8.18;100.00;99077.91;1838157;78;20841;-63
2021/12/21 06:09:16;;;;;;;5.22;2.85;;;;;;;-8.24;100.00;99079.55;1838464;78;21563;-65
2021/12/21 06:11:55;;;;;;;5.78;2.58;;;;;;;-8.29;100.00;99085.23;1837986;78;20926;-66
2021/12/21 06:25:25;;;;;;;7.85;2.62;;;;;;;-8.48;100.00;99103.23;1812940;78;21011;-65
2021/12/21 06:27:41;;;;;;;9.58;3.33;;;;;;;-8.49;100.00;99104.75;1838324;78;20960;-66
2021/12/21 06:30:13;;;;;;;9.93;3.27;;;;;;;-8.51;100.00;99111.64;1837730;78;21892;-65
2021/12/21 06:32:46;;;;;;;7.30;3.15;;;;;;;-8.52;100.00;99117.19;1837897;78;21792;-67
2021/12/21 06:35:17;;;;;;;7.28;3.70;;;;;;;-8.52;100.00;99123.37;1837915;78;20927;-68
2021/12/21 06:37:44;;;;;;;7.55;3.72;;;;;;;-8.60;100.00;99123.09;1781892;78;20968;-70
2021/12/21 06:40:12;;;;;;;5.25;2.95;;;;;;;-8.71;100.00;99131.19;1837516;78;20919;-65
2021/12/21 06:42:44;;;;;;;6.20;2.60;;;;;;;-8.73;100.00;99131.06;1808497;78;20900;-67
2021/12/21 06:45:26;;;;;;;5.58;2.27;;;;;;;-8.69;100.00;99137.16;1836524;78;21505;-65
2021/12/21 06:53:19;;;;;;;5.65;2.92;;;;;;;-8.68;100.00;99141.46;1838127;78;21401;-65
2021/12/21 06:55:48;;;;;;;10.68;4.65;;;;;;;-8.60;100.00;99142.30;1838025;78;21729;-70
2021/12/21 06:58:20;;;;;;;6.45;3.33;;;;;;;-8.58;100.00;99146.94;1838021;77;20908;-67
2021/12/21 07:00:52;;;;;;;7.58;4.03;;;;;;;-8.53;100.00;99145.78;1834051;78;20892;-68
2021/12/21 07:03:20;;;;;;;16.20;5.92;;;;;;;-8.49;100.00;99158.20;1838131;78;21441;-66
2021/12/21 07:05:53;;;;;;;15.15;6.30;;;;;;;-8.50;100.00;99168.09;1838138;77;20857;-66
2021/12/21 07:08:25;;;;;;;7.58;4.75;;;;;;;-8.53;100.00;99165.00;1807958;78;20986;-68
2021/12/21 07:11:01;;;;;;;11.10;4.22;;;;;;;-8.67;100.00;99174.36;1837399;78;20935;-66
2021/12/21 07:18:52;;;;;;;5.87;2.05;;;;;;;-9.09;100.00;99179.25;1840140;77;21393;-67
2021/12/21 07:21:21;;;;;;;6.70;2.90;;;;;;;-9.19;100.00;99189.47;1844068;77;21097;-65
2021/12/21 07:23:49;;;;;;;5.80;2.98;;;;;;;-9.36;100.00;99187.13;1818327;77;20931;-67
2021/12/21 07:26:19;;;;;;;2.17;1.52;;;;;;;-9.49;100.00;99189.23;1843730;77;21471;-65
2021/12/21 07:28:48;;;;;;;7.65;2.95;;;;;;;-9.69;100.00;99197.11;1844237;77;21472;-66
2021/12/21 07:31:17;;;;;;;3.15;1.80;;;;;;;-9.80;100.00;99195.79;1844436;77;20902;-67
2021/12/21 07:33:48;;;;;;;9.55;3.92;;;;;;;-9.81;100.00;99197.62;1844318;77;21218;-67
2021/12/21 07:36:17;;;;;;;14.10;4.37;;;;;;;-9.81;100.00;99194.95;1844154;77;21440;-65
2021/12/21 07:38:46;;;;;;;11.80;2.80;;;;;;;-9.74;100.00;99199.53;1844439;77;20950;-66
2021/12/21 07:41:15;;;;;;;9.08;2.90;;;;;;;-9.70;100.00;99202.11;1844778;77;20920;-65
2021/12/21 07:43:42;;;;;;;10.10;4.90;;;;;;;-9.71;100.00;99196.47;1818523;77;20980;-65
2021/12/21 07:46:11;;;;;;;22.35;5.83;;;;;;;-9.75;100.00;99209.88;1844385;77;21373;-66
2021/12/21 07:48:40;;;;;;;11.73;4.28;;;;;;;-9.79;100.00;99215.60;1818470;77;20955;-67
2021/12/21 07:51:09;;;;;;;18.98;5.37;;;;;;;-9.88;100.00;99218.11;1844682;77;21008;-66
2021/12/21 07:53:39;;;;;;;17.20;5.55;;;;;;;-9.96;100.00;99217.72;1844414;77;21512;-66
2021/12/21 07:56:10;;;;;;;11.27;4.30;;;;;;;-10.03;100.00;99220.86;1844608;77;20972;-68
2021/12/21 07:58:39;;;;;;;3.80;2.47;;;;;;;-10.08;100.00;99230.75;1844402;77;21107;-66
2021/12/21 08:01:07;;;;;;;7.92;3.90;;;;;;;-10.10;100.00;99235.97;1844293;77;21504;-66
2021/12/21 08:03:35;;;;;;;7.37;3.30;;;;;;;-10.09;100.00;99242.44;1844350;77;20979;-66
2021/12/21 08:06:08;;;;;;;9.85;3.37;;;;;;;-10.09;100.00;99243.77;1844334;77;20908;-67
2021/12/21 08:08:39;;;;;;;5.45;2.90;;;;;;;-10.10;100.00;99245.30;1844475;77;20986;-68
2021/12/21 08:11:27;;;;;;;7.53;3.57;;;;;;;-10.09;100.00;99243.77;1843667;77;20979;-68
2021/12/21 08:13:47;;;;;;;7.62;2.92;;;;;;;-10.13;100.00;99243.83;1842340;77;21058;-68
2021/12/21 08:16:18;;;;;;;5.55;2.60;;;;;;;-10.07;100.00;99247.58;1844480;77;20982;-71
2021/12/21 08:18:45;;;;;;;6.50;3.05;;;;;;;-10.06;100.00;99247.39;1843259;77;20892;-66
2021/12/21 08:21:15;;;;;;;5.22;3.02;;;;;;;-10.09;100.00;99253.11;1768831;78;20892;-68
2021/12/21 08:23:42;;;;;;;3.62;2.15;;;;;;;-10.18;100.00;99259.56;1808231;78;21025;-67
2021/12/21 08:26:14;;;;;;;6.62;3.33;;;;;;;-10.20;100.00;99257.62;1807911;78;20824;-68
2021/12/21 08:28:45;;;;;;;10.35;3.58;;;;;;;-10.26;100.00;99263.19;1808824;78;20883;-66
2021/12/21 08:31:14;;;;;;;6.47;2.65;;;;;;;-10.32;100.00;99261.30;1838052;78;20913;-67
2021/12/21 08:33:46;;;;;;;9.30;2.77;;;;;;;-10.29;100.00;99264.91;1837836;78;20872;-67
2021/12/21 08:36:14;;;;;;;7.30;4.08;;;;;;;-10.39;100.00;99270.02;1807992;78;21864;-71
2021/12/21 08:38:43;;;;;;;7.30;3.67;;;;;;;-10.43;100.00;99272.77;1808448;78;20930;-66
2021/12/21 08:41:11;;;;;;;8.38;3.83;;;;;;;-10.45;100.00;99268.63;1838092;78;20853;-66
2021/12/21 08:43:39;;;;;;;9.95;4.67;;;;;;;-10.42;100.00;99281.59;1838054;78;21543;-68
2021/12/21 08:46:08;;;;;;;16.10;6.05;;;;;;;-10.54;100.00;99282.09;1808783;78;21019;-68
2021/12/21 08:48:38;;;;;;;7.85;3.10;;;;;;;-10.49;100.00;99286.05;1808154;78;21040;-68
2021/12/21 08:51:08;;;;;;;7.97;4.08;;;;;;;-10.38;100.00;99285.52;1838198;78;20978;-67
2021/12/21 08:53:42;;;;;;;8.83;4.35;;;;;;;-10.34;100.00;99287.30;1807946;78;20996;-66
2021/12/21 08:56:11;;;;;;;15.18;4.05;;;;;;;-10.36;100.00;99288.83;1838449;78;20959;-66
2021/12/21 08:58:41;;;;;;;7.95;4.10;;;;;;;-10.41;100.00;99295.23;1807893;78;20987;-67
2021/12/21 09:01:09;;;;;;;12.85;5.03;;;;;;;-10.49;100.00;99286.05;1838330;77;21181;-68
2021/12/21 09:03:38;;;;;;;21.70;7.65;;;;;;;-10.57;100.00;99293.13;1837921;77;20968;-66
2021/12/21 09:06:07;;;;;;;12.65;4.08;;;;;;;-10.65;100.00;99298.56;1838064;77;21350;-67
2021/12/21 09:08:34;;;;;;;19.07;6.40;;;;;;;-10.68;100.00;99299.78;1808041;78;20933;-66
2021/12/21 09:11:05;;;;;;;7.83;3.90;;;;;;;-10.67;100.00;99288.09;1838129;78;20972;-69
2021/12/21 09:13:35;;;;;;;20.85;5.05;;;;;;;-10.66;100.00;99297.73;1838184;78;20892;-66
2021/12/21 09:16:02;;;;;;;8.58;3.75;;;;;;;-10.74;100.00;99293.84;1838004;78;20895;-68
2021/12/21 09:18:31;;;;;;;8.15;2.83;;;;;;;-10.77;100.00;99306.20;1808408;78;21409;-67
2021/12/21 09:20:57;;;;;;;12.47;6.05;;;;;;;-10.80;100.00;99298.09;1837995;77;20947;-65
2021/12/21 09:23:26;;;;;;;21.80;9.48;;;;;;;-10.77;100.00;99298.21;1838322;78;21016;-67
2021/12/21 09:25:55;;;;;;;18.95;7.50;;;;;;;-10.75;100.00;99303.66;1781839;78;20969;-67
2021/12/21 09:28:22;;;;;;;17.00;7.78;;;;;;;-10.78;100.00;99305.89;1838357;78;21382;-67
2021/12/21 09:30:49;;;;;;;11.22;4.42;;;;;;;-10.87;100.00;99309.16;1838079;77;20852;-68
2021/12/21 09:33:19;;;;;;;12.70;4.62;;;;;;;-10.84;100.00;99307.95;1808262;78;20947;-66
2021/12/21 09:35:47;;;;;;;14.07;3.95;;;;;;;-10.80;100.00;99308.74;1838159;77;20876;-68
2021/12/21 09:38:14;;;;;;;9.20;3.00;;;;;;;-10.77;100.00;99300.37;1838210;78;21656;-67
2021/12/21 09:40:40;;;;;;;3.58;2.12;;;;;;;-10.83;100.00;99315.75;1837937;77;20939;-68
2021/12/21 09:43:08;;;;;;;10.43;4.53;;;;;;;-10.86;99.99;99304.14;1838335;78;20955;-66
2021/12/21 09:45:38;;;;;;;10.98;3.60;;;;;;;-10.79;100.00;99302.89;1837855;78;21003;-66
2021/12/21 09:48:06;;;;;;;6.28;3.08;;;;;;;-10.69;100.00;99297.27;1838393;78;20990;-69
2021/12/21 09:50:36;;;;;;;7.92;3.65;;;;;;;-10.72;100.00;99304.31;1838228;78;21778;-69
2021/12/21 09:53:06;;;;;;;7.37;3.22;;;;;;;-10.72;100.00;99315.80;1808102;78;21050;-68
2021/12/21 09:55:36;;;;;;;11.78;3.72;;;;;;;-10.69;100.00;99307.43;1809132;78;20974;-67
2021/12/21 09:58:05;;;;;;;10.93;3.45;;;;;;;-10.56;100.00;99310.75;1837945;78;20869;-67
2021/12/21 10:00:34;;;;;;;4.70;2.33;;;;;;;-10.34;100.00;99318.78;1808255;78;20936;-67
2021/12/21 10:03:05;;;;;;;5.20;2.50;;;;;;;-10.29;100.00;99316.39;1808162;78;20980;-67
2021/12/21 10:05:37;;;;;;;9.83;3.10;;;;;;;-10.27;100.00;99311.67;1838207;77;20809;-67
2021/12/21 10:08:09;;;;;;;;;;;;;;;-10.26;100.00;99316.50;1784725;78;20967;-67
2021/12/21 10:10:49;;;;;;;5.97;2.15;;;;;;;-10.37;100.00;99327.66;1838099;78;20115;-67
2021/12/21 10:13:26;;;;;;;6.03;1.90;;;;;;;-10.53;100.00;99321.56;1838359;78;21454;-66
2021/12/21 10:15:58;;;;;;;7.40;3.05;;;;;;;-10.56;100.00;99325.94;1838005;77;21753;-67
2021/12/21 10:18:38;;;;;;;9.20;3.75;;;;;;;-10.53;100.00;99320.23;1837319;78;20995;-67
2021/12/21 10:21:08;;;;;;;14.60;3.92;;;;;;;-10.57;100.00;99317.60;1807763;78;21024;-66
2021/12/21 10:23:44;;;;;;;8.08;3.67;;;;;;;-10.54;100.00;99327.39;1807938;78;21039;-67
2021/12/21 10:26:26;;;;;;;5.65;2.33;;;;;;;-10.50;100.00;99327.84;1837935;78;20904;-71
2021/12/21 10:29:01;;;;;;;6.28;2.50;;;;;;;-10.48;99.92;99342.30;1838038;77;21294;-67
2021/12/21 10:31:39;;;;;;;9.60;4.47;;;;;;;-10.46;100.00;99338.43;1837904;78;20891;-66
2021/12/21 10:34:13;;;;;;;11.80;4.60;;;;;;;-10.49;100.00;99339.34;1837942;77;20943;-67
2021/12/21 10:36:56;;;;;;;10.80;3.62;;;;;;;-10.33;100.00;99335.09;1807728;78;20912;-67
2021/12/21 10:39:27;;;;;;;6.08;2.72;;;;;;;-10.19;100.00;99341.90;1805100;78;21007;-66
2021/12/21 10:42:00;;;;;;;9.73;3.58;;;;;;;-10.19;100.00;99336.56;1838103;77;22181;-67
2021/12/21 10:44:32;;;;;;;8.00;2.85;;;;;;;-10.17;100.00;99337.21;1837996;78;20959;-67
2021/12/21 10:46:58;;;;;;;8.75;2.67;;;;;;;-10.14;100.00;99335.50;1838106;78;21488;-67
2021/12/21 10:49:27;;;;;;;7.60;3.05;;;;;;;-10.06;100.00;99335.38;1838046;77;21465;-65
2021/12/21 10:52:10;;;;;;;8.70;3.05;;;;;;;-9.99;100.00;99334.61;1838024;77;21444;-64
2021/12/21 10:54:50;;;;;;;5.00;1.95;;;;;;;-9.99;100.00;99339.45;1837995;78;21089;-67
2021/12/21 10:57:29;;;;;;;4.45;2.30;;;;;;;-9.97;100.00;99336.09;1809208;78;20975;-66
2021/12/21 10:59:57;;;;;;;;;;;;;;;-9.89;100.00;99331.13;1812018;78;20904;-66
2021/12/21 11:02:31;;;;;;;15.43;4.67;;;;;;;-9.83;100.00;99342.39;1809139;78;20163;-67
2021/12/21 11:05:03;;;;;;;7.25;2.70;;;;;;;-9.88;100.00;99339.46;1838030;78;20857;-66
2021/12/21 11:10:27;;;;;;;8.60;3.25;;;;;;;-9.87;100.00;99352.27;1781596;78;20917;-66
2021/12/21 11:13:05;;;;;;;9.23;3.75;;;;;;;-9.76;100.00;99339.78;1838106;78;20959;-66
2021/12/21 11:15:39;;;;;;;4.58;2.15;;;;;;;-9.68;100.00;99340.98;1838098;77;20916;-68
2021/12/21 11:18:18;;;;;;;8.60;3.12;;;;;;;-9.70;100.00;99339.50;1808104;78;20980;-68
2021/12/21 11:20:51;;;;;;;7.10;2.95;;;;;;;-9.80;100.00;99348.67;1838035;77;21056;-66
2021/12/21 11:23:20;;;;;;;3.65;2.37;;;;;;;-9.85;100.00;99345.75;1838049;78;21015;-66
2021/12/21 11:25:53;;;;;;;7.05;2.52;;;;;;;-9.73;100.00;99351.40;1807897;78;21456;-67
2021/12/21 11:28:29;;;;;;;7.60;3.37;;;;;;;-9.69;100.00;99353.18;1838197;78;20976;-67
2021/12/21 11:31:03;;;;;;;7.10;2.83;;;;;;;-9.77;100.00;99355.45;1838003;78;20920;-65
2021/12/21 11:33:36;;;;;;;10.53;3.15;;;;;;;-9.81;100.00;99361.67;1838336;77;21884;-67
2021/12/21 11:38:54;;;;;;;5.50;2.42;;;;;;;-9.90;99.72;99359.66;1837025;78;20965;-67
2021/12/21 11:41:25;;;;;;;3.98;2.12;;;;;;;-9.86;99.69;99369.94;1806968;78;20869;-67
2021/12/21 11:44:21;;;;;;;17.40;3.02;;;;;;;-9.86;99.38;99374.78;1837260;78;21500;-68
2021/12/21 11:47:01;;;;;;;6.75;2.87;;;;;;;-9.98;99.06;99384.28;1837325;78;22156;-67
2021/12/21 11:49:51;;;;;;;3.92;2.17;;;;;;;-10.08;99.28;99377.39;1782233;78;21450;-68
2021/12/21 11:52:23;;;;;;;8.53;2.75;;;;;;;-10.07;99.40;99380.39;1838195;78;20892;-67
2021/12/21 11:54:53;;;;;;;10.93;3.02;;;;;;;-10.10;99.70;99387.94;1807188;78;21027;-64
2021/12/21 11:57:53;;;;;;;8.10;3.58;;;;;;;-10.06;99.56;99393.20;1837151;78;21800;-64
2021/12/21 12:00:34;;;;;;;5.70;2.50;;;;;;;-10.11;99.58;99399.10;1793939;78;21510;-65
2021/12/21 12:03:19;;;;;;;5.20;2.40;;;;;;;-10.10;99.61;99395.94;1822394;78;20916;-67
2021/12/21 12:06:09;;;;;;;9.35;2.92;;;;;;;-10.21;99.17;99409.23;1820135;78;21031;-65
2021/12/21 12:08:50;;;;;;;4.15;2.87;;;;;;;-10.37;99.30;99407.08;1782501;78;20983;-64
2021/12/21 12:11:39;;;;;;;10.48;3.85;;;;;;;-10.39;99.21;99411.80;1741100;80;21006;-66
2021/12/21 12:14:13;;;;;;;2.80;1.77;;;;;;;-10.34;99.44;99411.23;1818674;78;21767;-65
2021/12/21 12:17:01;;;;;;;9.33;4.58;;;;;;;-10.14;99.56;99423.47;1819670;78;21116;-67
2021/12/21 12:19:33;;;;;;;6.47;3.22;;;;;;;-10.03;99.78;99422.98;1835509;78;20987;-67
2021/12/21 12:22:09;;;;;;;8.75;3.95;;;;;;;-10.03;99.44;99433.66;1837672;78;20999;-64
2021/12/21 12:24:42;;;;;;;11.53;4.42;;;;;;;-10.14;99.37;99439.47;1798151;78;21027;-67
2021/12/21 12:27:25;;;;;;;8.90;3.75;;;;;;;-10.23;99.33;99437.41;1819419;78;21817;-67
2021/12/21 12:29:58;;;;;;;12.78;3.80;;;;;;;-10.31;99.29;99443.67;1822526;78;21047;-65
2021/12/21 12:32:42;;;;;;;9.18;3.77;;;;;;;-10.46;98.81;99452.17;1791007;78;21035;-66
2021/12/21 12:35:15;;;;;;;5.97;2.60;;;;;;;-10.54;98.74;99454.47;1822446;78;21059;-66
2021/12/21 12:37:58;;;;;;;5.17;3.12;;;;;;;-10.58;98.89;99446.50;1823821;77;21030;-67
2021/12/21 12:40:29;;;;;;;5.35;2.98;;;;;;;-10.56;98.96;99451.95;1822924;78;21147;-67